Collinsville, Oklahoma
Current Conditions -  °F | °C
As of 10:00 AM on Saturday 22 Nov 2014 (Local Time) from KTUL Reporting Station
Light Rain Light Rain  
Wind Chill: 57°   Ceiling: 9000
Heat Index: 57°   Visibility: 6mi
Dew Point: 56°   Wind: 22mph
Humidity: 96%   Direction: 180°S
Pressure: 30.01"   Gusts: 31mph
Location:  36.36°N, 95.84°W
Report Text: KTUL 221600Z 18019G27KT 6SM -RA BR FEW009 OVC090 14/13 A3001 RMK AO2 P0001 T01390133
Loading
Personal Weather Stations






























Interactive Weather Map New forecast layout! Learn more

10-Day Weather Forecast

Advertisements
Track Severe Weather on mobile